createdAt,value
2022-11-10T08:11:59.737Z,82.91
2022-11-10T08:13:22.572Z,83.88
2022-11-10T08:14:44.296Z,84.05
2022-11-10T08:16:04.855Z,84.13
2022-11-10T08:17:26.360Z,83.72
2022-11-10T08:18:48.217Z,83.76
2022-11-10T08:20:11.081Z,83.71
2022-11-10T08:21:36.923Z,83.01
2022-11-10T08:23:00.027Z,82.24
2022-11-10T08:24:21.319Z,81.67
2022-11-10T08:25:42.148Z,80.68
2022-11-10T08:27:02.875Z,81.36
2022-11-10T08:28:24.720Z,80.79
2022-11-10T08:29:46.237Z,81.65
2022-11-10T08:31:07.684Z,81.94
2022-11-10T08:32:28.737Z,81.71
2022-11-10T08:33:50.178Z,81.83
2022-11-10T08:35:14.654Z,81.32
2022-11-10T08:36:38.108Z,80.54
2022-11-10T08:38:08.090Z,80.80
2022-11-10T08:39:38.663Z,80.62
2022-11-10T08:40:48.731Z,79.81
2022-11-10T08:42:10.517Z,80.09
2022-11-10T08:43:31.837Z,80.45
2022-11-10T08:44:53.256Z,81.34
2022-11-10T08:46:14.610Z,81.54
2022-11-10T08:47:35.797Z,81.82
2022-11-10T08:48:57.397Z,81.59
2022-11-10T08:50:18.722Z,81.27
2022-11-10T08:51:39.495Z,81.08
2022-11-10T08:53:08.365Z,80.96
2022-11-10T08:54:30.265Z,81.34
2022-11-10T08:55:53.561Z,82.06
2022-11-10T08:57:14.715Z,82.09
2022-11-10T08:58:47.263Z,82.62
2022-11-10T09:00:01.165Z,81.70
2022-11-10T09:01:22.655Z,81.49
2022-11-10T09:02:43.984Z,82.93
2022-11-10T09:04:05.534Z,82.43
2022-11-10T09:05:26.810Z,81.75
2022-11-10T09:06:48.319Z,82.54
2022-11-10T09:08:09.134Z,83.29
2022-11-10T09:09:30.719Z,83.56
2022-11-10T09:10:52.231Z,84.57
2022-11-10T09:12:14.374Z,84.34
2022-11-10T09:13:35.898Z,84.39
2022-11-10T09:14:57.623Z,83.43
2022-11-10T09:16:18.784Z,83.87
2022-11-10T09:17:41.190Z,84.33
2022-11-10T09:19:02.431Z,83.79
2022-11-10T09:20:23.786Z,83.81
2022-11-10T09:21:45.165Z,83.14
2022-11-10T09:23:10.233Z,82.48
2022-11-10T09:24:31.768Z,82.59
2022-11-10T09:25:54.438Z,83.33
2022-11-10T09:27:17.856Z,82.43
2022-11-10T09:28:39.019Z,83.29
2022-11-10T09:30:00.506Z,83.97
2022-11-10T09:31:21.348Z,83.19
2022-11-10T09:32:46.246Z,83.23
2022-11-10T09:34:07.898Z,83.32
2022-11-10T09:35:29.319Z,84.75
2022-11-10T09:36:49.714Z,84.16
2022-11-10T09:38:11.333Z,84.13
2022-11-10T09:39:32.870Z,84.06
2022-11-10T09:40:58.875Z,84.62
2022-11-10T09:42:28.133Z,84.29
2022-11-10T09:44:09.003Z,84.21
2022-11-10T09:45:36.426Z,84.67
2022-11-10T09:46:56.465Z,86.48
2022-11-10T09:48:23.924Z,85.74
2022-11-10T09:49:47.556Z,84.38
2022-11-10T09:51:09.982Z,83.81
2022-11-10T09:52:33.653Z,83.93
2022-11-10T09:53:59.559Z,84.41
2022-11-10T09:55:29.985Z,84.02
2022-11-10T09:56:54.049Z,83.69
2022-11-10T09:58:17.481Z,84.93
2022-11-10T09:59:39.392Z,84.94
2022-11-10T10:02:15.104Z,84.78
2022-11-10T10:03:38.157Z,85.05
2022-11-10T10:05:00.583Z,84.44
2022-11-10T10:06:23.189Z,84.17
2022-11-10T10:07:46.215Z,84.51
2022-11-10T10:09:25.032Z,85.33
2022-11-10T10:10:57.259Z,85.40
2022-11-10T10:12:38.893Z,85.59
2022-11-10T10:14:05.189Z,86.06
2022-11-10T10:15:46.430Z,86.29
2022-11-10T10:17:15.642Z,86.01
2022-11-10T10:18:57.645Z,85.71
2022-11-10T10:20:21.230Z,85.55
2022-11-10T10:22:01.636Z,85.79
2022-11-10T10:23:46.737Z,86.26
2022-11-10T10:24:49.908Z,87.23
2022-11-10T10:26:13.234Z,86.69
2022-11-10T10:27:35.313Z,86.85
2022-11-10T10:28:58.779Z,86.14
2022-11-10T10:30:20.671Z,85.86
2022-11-10T10:31:45.327Z,86.13
2022-11-10T10:33:19.919Z,86.96
2022-11-10T10:34:42.348Z,86.50
2022-11-10T10:36:05.421Z,86.78
2022-11-10T10:37:48.909Z,86.04
2022-11-10T10:39:15.555Z,86.51
2022-11-10T10:40:36.951Z,86.39
2022-11-10T10:41:59.843Z,86.45
2022-11-10T10:43:21.382Z,86.40
2022-11-10T10:44:45.610Z,86.15
2022-11-10T10:46:12.357Z,86.28
2022-11-10T10:47:37.480Z,86.14
2022-11-10T10:50:35.038Z,85.90
2022-11-10T10:52:03.490Z,85.60
2022-11-10T10:53:24.502Z,84.79
2022-11-10T10:54:44.876Z,84.89
2022-11-10T10:56:08.899Z,84.81
2022-11-10T10:57:30.706Z,85.24
2022-11-10T10:58:56.014Z,84.71
2022-11-10T11:00:21.451Z,84.82
2022-11-10T11:01:44.372Z,85.16
2022-11-10T11:03:10.077Z,85.04
2022-11-10T11:04:34.889Z,85.95
2022-11-10T11:06:04.699Z,85.53
2022-11-10T11:07:26.350Z,86.07
2022-11-10T11:09:02.301Z,88.31
2022-11-10T11:10:24.021Z,88.36
2022-11-10T11:11:51.738Z,87.85
2022-11-10T11:13:18.355Z,86.97
2022-11-10T11:14:45.763Z,87.24
2022-11-10T11:16:11.294Z,87.47
2022-11-10T11:17:31.740Z,87.87
2022-11-10T11:18:53.400Z,88.29
2022-11-10T11:20:17.289Z,88.43
2022-11-10T11:21:44.078Z,88.11
2022-11-10T11:23:20.752Z,87.91
2022-11-10T11:24:56.367Z,88.80
2022-11-10T11:26:25.187Z,89.32
2022-11-10T11:27:50.854Z,88.80
2022-11-10T11:29:17.052Z,89.33
2022-11-10T11:30:57.507Z,88.45
2022-11-10T11:32:38.845Z,88.74
2022-11-10T11:34:02.356Z,88.61
2022-11-10T11:35:32.312Z,88.38
2022-11-10T11:36:55.490Z,88.05
2022-11-10T11:38:19.274Z,88.72
2022-11-10T11:39:43.797Z,89.65
2022-11-10T11:41:14.271Z,89.59
2022-11-10T11:42:52.317Z,88.51
2022-11-10T11:44:22.292Z,89.85
2022-11-10T11:45:51.638Z,89.27
2022-11-10T11:47:20.131Z,89.25
2022-11-10T11:48:59.863Z,90.04
2022-11-10T11:50:26.109Z,90.29
2022-11-10T11:51:54.885Z,92.17
2022-11-10T11:53:18.177Z,92.07
2022-11-10T11:54:58.156Z,92.81
2022-11-10T11:56:23.053Z,92.94
2022-11-10T11:58:00.913Z,92.64
2022-11-10T11:59:39.204Z,92.13
2022-11-10T12:01:07.813Z,91.60
2022-11-10T12:02:34.435Z,91.40
2022-11-10T12:04:10.809Z,91.80
2022-11-10T12:05:45.633Z,91.56
2022-11-10T12:07:25.527Z,91.06
2022-11-10T12:08:52.123Z,90.71
2022-11-10T12:10:15.305Z,91.04
2022-11-10T12:11:41.235Z,90.81
2022-11-10T12:13:07.097Z,91.65
2022-11-10T12:14:42.281Z,91.45
2022-11-10T12:16:05.285Z,92.36
2022-11-10T12:17:37.213Z,92.92
2022-11-10T12:19:06.685Z,94.46
2022-11-10T12:20:35.702Z,95.77
2022-11-10T12:22:01.829Z,96.80
2022-11-10T12:23:25.251Z,94.64
2022-11-10T12:24:48.393Z,94.90
2022-11-10T12:26:12.949Z,97.19
2022-11-10T12:27:36.121Z,98.44
2022-11-10T12:29:13.574Z,97.58
2022-11-10T12:30:36.535Z,96.11
2022-11-10T12:33:26.673Z,95.38
2022-11-10T12:34:50.317Z,96.48
2022-11-10T12:36:14.569Z,95.43
2022-11-10T12:37:38.631Z,95.55
2022-11-10T12:39:20.020Z,95.18
2022-11-10T12:40:49.489Z,94.33
2022-11-10T12:42:11.821Z,94.00
2022-11-10T12:43:41.005Z,94.15
2022-11-10T12:45:04.389Z,94.16
2022-11-10T12:46:24.789Z,94.02
2022-11-10T12:47:47.356Z,94.34
2022-11-10T12:49:14.902Z,94.89
2022-11-10T12:50:47.229Z,94.65
2022-11-10T12:52:20.314Z,96.22
2022-11-10T12:53:42.907Z,96.65
2022-11-10T12:55:07.453Z,96.90
2022-11-10T12:56:30.753Z,97.95
2022-11-10T12:57:52.450Z,98.41
2022-11-10T12:59:14.792Z,98.46
2022-11-10T13:00:41.229Z,98.06
2022-11-10T13:02:04.530Z,98.89
2022-11-10T13:03:28.452Z,99.44
2022-11-10T13:04:56.077Z,99.55
2022-11-10T13:06:29.029Z,99.83
2022-11-10T13:07:52.120Z,99.06
2022-11-10T13:09:29.736Z,98.85
2022-11-10T13:10:53.057Z,98.95
2022-11-10T13:12:18.189Z,98.41
2022-11-10T13:13:52.154Z,99.13
2022-11-10T13:15:32.901Z,99.83
2022-11-10T13:16:56.273Z,99.50
2022-11-10T13:18:29.398Z,99.29
2022-11-10T13:19:51.887Z,99.09
2022-11-10T13:21:16.028Z,99.33
2022-11-10T13:22:43.904Z,99.52
2022-11-10T13:24:07.380Z,99.50
2022-11-10T13:25:40.144Z,99.88
2022-11-10T13:27:03.281Z,100.00
2022-11-10T13:28:27.560Z,100.00
2022-11-10T13:29:51.043Z,100.00
2022-11-10T13:31:30.459Z,100.00
2022-11-10T13:34:06.483Z,100.00
2022-11-10T13:35:29.357Z,100.00
2022-11-10T13:36:49.948Z,100.00
2022-11-10T13:38:30.854Z,100.00
2022-11-10T13:39:53.686Z,100.00
2022-11-10T13:41:20.061Z,100.00
2022-11-10T13:42:47.136Z,100.00
2022-11-10T13:44:28.174Z,100.00
2022-11-10T13:45:53.389Z,100.00
2022-11-10T13:47:20.592Z,100.00
2022-11-10T13:48:56.913Z,100.00
2022-11-10T13:50:27.370Z,100.00
2022-11-10T13:51:56.467Z,100.00
2022-11-10T13:53:24.130Z,100.00
2022-11-10T13:54:57.897Z,100.00
2022-11-10T13:56:27.305Z,100.00
2022-11-10T13:57:55.766Z,100.00
2022-11-10T13:59:19.219Z,100.00
2022-11-10T14:00:41.530Z,100.00
2022-11-10T14:02:20.864Z,100.00
2022-11-10T14:03:49.422Z,100.00
2022-11-10T14:05:13.519Z,100.00
2022-11-10T14:06:50.181Z,100.00
2022-11-10T14:08:14.105Z,100.00
2022-11-10T14:09:39.655Z,100.00
2022-11-10T14:11:02.158Z,100.00
2022-11-10T14:12:33.657Z,100.00
2022-11-10T14:13:57.110Z,100.00
2022-11-10T14:15:27.459Z,100.00
2022-11-10T14:16:52.868Z,100.00
2022-11-10T14:18:26.603Z,100.00
2022-11-10T14:19:49.219Z,100.00
2022-11-10T14:21:13.406Z,100.00
2022-11-10T14:22:42.636Z,100.00
2022-11-10T14:24:18.581Z,100.00
2022-11-10T14:25:43.635Z,100.00
2022-11-10T14:27:10.722Z,100.00
2022-11-10T14:28:34.168Z,100.00
2022-11-10T14:30:06.520Z,100.00
2022-11-10T14:31:27.658Z,100.00
2022-11-10T14:32:51.541Z,100.00
2022-11-10T14:34:13.954Z,100.00
2022-11-10T14:35:53.169Z,100.00
2022-11-10T14:37:15.743Z,100.00
2022-11-10T14:38:40.398Z,100.00
2022-11-10T14:40:04.624Z,100.00
2022-11-10T14:41:30.758Z,100.00
2022-11-10T14:42:52.959Z,100.00
2022-11-10T14:44:16.417Z,100.00
2022-11-10T14:45:39.270Z,100.00
2022-11-10T14:47:15.021Z,100.00
2022-11-10T14:48:37.749Z,100.00
2022-11-10T14:50:07.156Z,100.00
2022-11-10T14:51:30.586Z,100.00
2022-11-10T14:52:55.340Z,100.00
2022-11-10T14:54:19.189Z,100.00
2022-11-10T14:55:42.114Z,100.00
2022-11-10T14:57:06.099Z,100.00
2022-11-10T14:58:34.009Z,100.00
2022-11-10T14:59:58.443Z,100.00
2022-11-10T15:01:22.518Z,100.00
2022-11-10T15:02:44.865Z,100.00
2022-11-10T15:04:08.492Z,100.00
2022-11-10T15:05:31.003Z,100.00
2022-11-10T15:06:53.938Z,100.00
2022-11-10T15:08:16.976Z,100.00
2022-11-10T15:35:11.546Z,100.00
2022-11-10T15:36:34.988Z,100.00
2022-11-10T15:38:03.467Z,100.00
2022-11-10T15:39:25.910Z,100.00
2022-11-10T15:40:49.895Z,100.00
2022-11-10T15:42:13.524Z,100.00
2022-11-10T15:43:35.825Z,100.00
2022-11-10T15:44:59.594Z,100.00
2022-11-10T15:46:22.619Z,100.00
2022-11-10T15:47:44.518Z,100.00
2022-11-10T15:49:07.127Z,100.00
2022-11-10T15:50:28.699Z,100.00
2022-11-10T15:51:54.389Z,100.00
2022-11-10T15:53:19.207Z,100.00
2022-11-10T15:54:40.335Z,100.00
2022-11-10T15:56:02.101Z,100.00
2022-11-10T15:57:24.209Z,100.00
2022-11-10T15:58:47.563Z,100.00
2022-11-10T16:00:13.939Z,100.00
2022-11-10T16:01:35.549Z,100.00
2022-11-10T16:02:57.821Z,100.00
2022-11-10T16:04:19.602Z,100.00
2022-11-10T16:05:42.221Z,100.00
2022-11-10T16:07:04.240Z,100.00
2022-11-10T16:08:26.720Z,100.00
2022-11-10T16:09:51.637Z,100.00
2022-11-10T16:11:21.252Z,100.00
2022-11-10T16:12:43.139Z,100.00
2022-11-10T16:14:06.085Z,100.00
2022-11-10T16:15:27.137Z,100.00
2022-11-10T16:16:47.897Z,100.00
2022-11-10T16:18:23.092Z,100.00
2022-11-10T16:19:47.005Z,100.00
2022-11-10T16:21:16.855Z,100.00
2022-11-10T16:22:37.454Z,100.00
2022-11-10T16:23:59.564Z,100.00
2022-11-10T16:25:26.590Z,100.00
2022-11-10T16:26:45.322Z,100.00
2022-11-10T16:28:08.073Z,100.00
2022-11-10T16:29:31.433Z,100.00
2022-11-10T16:30:56.462Z,100.00
2022-11-10T16:32:18.306Z,100.00
2022-11-10T16:33:42.272Z,100.00
2022-11-10T16:35:04.266Z,100.00
2022-11-10T16:36:27.093Z,100.00
2022-11-10T16:37:49.200Z,100.00
2022-11-10T16:39:14.740Z,100.00
2022-11-10T16:40:38.203Z,100.00
2022-11-10T16:42:00.296Z,100.00
2022-11-10T16:43:22.915Z,100.00
2022-11-10T16:44:45.014Z,100.00
2022-11-10T16:46:08.887Z,100.00
2022-11-10T16:47:33.284Z,100.00
2022-11-10T16:48:58.824Z,100.00
2022-11-10T16:50:29.577Z,100.00
2022-11-10T16:51:51.685Z,100.00
2022-11-10T16:53:15.902Z,100.00
2022-11-10T16:54:37.992Z,100.00
2022-11-10T16:55:59.845Z,100.00
2022-11-10T16:57:21.838Z,100.00
2022-11-10T16:58:42.798Z,100.00
2022-11-10T17:00:04.741Z,100.00
2022-11-10T17:01:27.782Z,100.00
2022-11-10T17:02:51.803Z,100.00
2022-11-10T17:04:14.767Z,100.00
2022-11-10T17:05:36.508Z,100.00
2022-11-10T17:06:58.873Z,100.00
2022-11-10T17:08:21.562Z,100.00
2022-11-10T17:09:44.670Z,100.00
2022-11-10T17:11:08.447Z,100.00
2022-11-10T17:12:30.787Z,100.00
2022-11-10T17:13:52.378Z,100.00
2022-11-10T17:15:29.125Z,100.00
2022-11-10T17:16:52.096Z,100.00
2022-11-10T17:18:15.265Z,100.00
2022-11-10T17:19:37.228Z,100.00
2022-11-10T17:21:01.937Z,100.00
2022-11-10T17:22:23.713Z,100.00
2022-11-10T17:23:44.591Z,100.00
2022-11-10T17:25:07.602Z,100.00
2022-11-10T17:26:30.958Z,100.00
2022-11-10T17:27:54.308Z,100.00
2022-11-10T17:29:19.260Z,100.00
2022-11-10T17:30:41.628Z,100.00
2022-11-10T17:32:03.684Z,100.00
2022-11-10T17:33:25.583Z,100.00
2022-11-10T17:34:47.180Z,100.00
2022-11-10T17:36:17.003Z,100.00
2022-11-10T17:37:40.252Z,100.00
2022-11-10T17:39:02.153Z,100.00
2022-11-10T17:40:24.767Z,100.00
2022-11-10T17:41:47.386Z,100.00
2022-11-10T17:43:13.167Z,100.00
2022-11-10T17:44:34.912Z,100.00
2022-11-10T17:45:57.124Z,100.00
2022-11-10T17:47:18.666Z,100.00
2022-11-10T17:48:44.157Z,100.00
2022-11-10T17:50:07.419Z,100.00
2022-11-10T17:51:29.409Z,100.00
2022-11-10T17:52:51.682Z,100.00
2022-11-10T17:54:14.695Z,100.00
2022-11-10T17:55:42.393Z,100.00
2022-11-10T17:57:06.183Z,100.00
2022-11-10T17:58:27.996Z,100.00
2022-11-10T17:59:49.571Z,100.00
2022-11-10T18:01:16.064Z,100.00
2022-11-10T18:02:38.045Z,100.00
2022-11-10T18:04:01.409Z,100.00
2022-11-10T18:05:23.467Z,100.00
2022-11-10T18:06:46.351Z,100.00
2022-11-10T18:08:08.430Z,100.00
2022-11-10T18:09:30.136Z,100.00
2022-11-10T18:10:53.241Z,100.00
2022-11-10T18:12:15.128Z,100.00
2022-11-10T18:13:39.001Z,100.00
2022-11-10T18:15:01.097Z,100.00
2022-11-10T18:16:22.775Z,100.00
2022-11-10T18:17:43.839Z,100.00
2022-11-10T18:19:05.405Z,100.00
2022-11-10T18:20:30.425Z,100.00
2022-11-10T18:21:52.224Z,100.00
2022-11-10T18:23:14.316Z,100.00
2022-11-10T18:24:38.897Z,100.00
2022-11-10T18:26:05.089Z,100.00
2022-11-10T18:27:26.873Z,100.00
2022-11-10T18:28:49.690Z,100.00
2022-11-10T18:30:14.200Z,100.00
2022-11-10T18:31:36.088Z,100.00
2022-11-10T18:32:58.281Z,100.00
2022-11-10T18:34:18.914Z,100.00
2022-11-10T18:35:41.232Z,100.00
2022-11-10T18:37:02.898Z,100.00
2022-11-10T18:38:25.424Z,100.00
2022-11-10T18:39:47.939Z,100.00
2022-11-10T18:41:31.371Z,100.00
2022-11-10T18:43:05.927Z,100.00
2022-11-10T18:44:24.311Z,100.00
2022-11-10T18:45:46.087Z,100.00
2022-11-10T18:47:12.549Z,100.00
2022-11-10T18:48:37.415Z,100.00
2022-11-10T18:49:59.162Z,100.00
2022-11-10T18:51:20.842Z,100.00
2022-11-10T18:52:41.687Z,100.00
2022-11-10T18:54:03.683Z,100.00
2022-11-10T18:55:27.161Z,100.00
2022-11-10T18:56:48.728Z,100.00
2022-11-10T18:58:10.320Z,100.00
2022-11-10T18:59:31.343Z,100.00
2022-11-10T19:00:53.085Z,100.00
2022-11-10T19:02:15.644Z,100.00
2022-11-10T19:03:38.157Z,100.00
2022-11-10T19:04:59.836Z,100.00
2022-11-10T19:06:20.357Z,100.00
2022-11-10T19:07:44.240Z,100.00
2022-11-10T19:09:06.338Z,100.00
2022-11-10T19:10:28.230Z,100.00
2022-11-10T19:11:50.426Z,100.00
2022-11-10T19:13:12.514Z,100.00
2022-11-10T19:14:35.757Z,100.00
2022-11-10T19:15:59.421Z,100.00
2022-11-10T19:17:22.457Z,100.00
2022-11-10T19:18:43.824Z,100.00
2022-11-10T19:20:06.140Z,100.00
2022-11-10T19:21:28.448Z,100.00
2022-11-10T19:22:50.161Z,100.00
2022-11-10T19:24:12.493Z,100.00
2022-11-10T19:25:34.725Z,100.00
2022-11-10T19:26:55.997Z,100.00
2022-11-10T19:28:17.640Z,100.00
2022-11-10T19:29:38.509Z,100.00
2022-11-10T19:31:00.722Z,100.00
2022-11-10T19:32:24.832Z,100.00
2022-11-10T19:33:47.645Z,100.00
2022-11-10T19:35:11.179Z,100.00
2022-11-10T19:36:32.858Z,100.00
2022-11-10T19:37:54.033Z,100.00
2022-11-10T19:39:16.007Z,100.00
2022-11-10T19:40:43.124Z,100.00
2022-11-10T19:42:04.380Z,100.00
2022-11-10T19:43:28.056Z,100.00
2022-11-10T19:44:49.619Z,100.00
2022-11-10T19:46:14.243Z,100.00
2022-11-10T19:47:36.319Z,100.00
2022-11-10T19:48:58.217Z,100.00
2022-11-10T19:50:18.735Z,100.00
2022-11-10T19:51:40.313Z,100.00
2022-11-10T19:53:02.722Z,100.00
2022-11-10T19:54:24.504Z,100.00
2022-11-10T19:55:46.225Z,100.00
2022-11-10T19:57:08.918Z,100.00
2022-11-10T19:58:33.138Z,100.00
2022-11-10T19:59:54.992Z,100.00
2022-11-10T20:01:17.833Z,100.00
2022-11-10T20:02:45.203Z,100.00
2022-11-10T20:04:04.613Z,100.00
2022-11-10T20:05:28.005Z,100.00
2022-11-10T20:06:53.303Z,100.00
2022-11-10T20:08:17.177Z,100.00
2022-11-10T20:09:40.313Z,100.00
2022-11-10T20:11:07.808Z,100.00
2022-11-10T20:12:30.673Z,100.00
2022-11-10T20:13:57.789Z,100.00
2022-11-10T20:15:19.678Z,100.00
2022-11-10T20:16:41.662Z,100.00
2022-11-10T20:18:04.471Z,100.00
2022-11-10T20:19:25.331Z,100.00
2022-11-10T20:20:47.532Z,100.00
2022-11-10T20:22:08.406Z,100.00
2022-11-10T20:23:30.067Z,100.00
2022-11-10T20:24:52.713Z,100.00
2022-11-10T20:26:15.827Z,100.00
2022-11-10T20:27:37.717Z,100.00
2022-11-10T20:28:59.602Z,100.00
2022-11-10T20:30:23.844Z,100.00
2022-11-10T20:31:45.469Z,100.00
2022-11-10T20:33:06.720Z,100.00
2022-11-10T20:34:28.721Z,100.00
2022-11-10T20:35:51.967Z,100.00
2022-11-10T20:37:14.064Z,100.00
2022-11-10T20:38:36.161Z,100.00
2022-11-10T20:39:59.302Z,100.00
2022-11-10T20:41:23.131Z,100.00
2022-11-10T20:42:45.156Z,100.00
2022-11-10T20:44:06.847Z,100.00
2022-11-10T20:45:27.992Z,100.00
2022-11-10T20:46:54.628Z,100.00
2022-11-10T20:48:13.543Z,100.00
2022-11-10T20:49:35.161Z,100.00
2022-11-10T20:50:58.687Z,100.00
2022-11-10T20:52:21.340Z,100.00
2022-11-10T20:53:43.080Z,100.00
2022-11-10T20:55:09.266Z,100.00
2022-11-10T20:56:33.331Z,100.00
2022-11-10T20:57:54.298Z,100.00
2022-11-10T20:59:15.853Z,100.00
2022-11-10T21:00:36.604Z,100.00
2022-11-10T21:01:58.552Z,100.00
2022-11-10T21:03:23.143Z,100.00
2022-11-10T21:04:45.714Z,100.00
2022-11-10T21:06:07.945Z,100.00
2022-11-10T21:07:30.221Z,100.00
2022-11-10T21:08:55.010Z,100.00
2022-11-10T21:10:17.086Z,100.00
2022-11-10T21:11:56.347Z,100.00
2022-11-10T21:13:18.444Z,100.00
2022-11-10T21:14:41.803Z,100.00
2022-11-10T21:16:04.978Z,100.00
2022-11-10T21:17:27.450Z,100.00
2022-11-10T21:18:49.231Z,100.00
2022-11-10T21:20:11.764Z,100.00
2022-11-10T21:21:36.157Z,100.00
2022-11-10T21:23:03.239Z,100.00
2022-11-10T21:24:22.643Z,100.00
2022-11-10T21:25:46.758Z,100.00
2022-11-10T21:27:10.274Z,100.00
2022-11-10T21:28:33.846Z,100.00
2022-11-10T21:29:55.524Z,100.00
2022-11-10T21:31:20.127Z,100.00
2022-11-10T21:32:42.120Z,100.00
2022-11-10T21:34:04.725Z,100.00
2022-11-10T21:35:25.885Z,100.00
2022-11-10T21:36:48.302Z,100.00
2022-11-10T21:38:17.020Z,100.00
2022-11-10T21:39:39.304Z,100.00
2022-11-10T21:41:01.803Z,100.00
2022-11-10T21:42:23.838Z,100.00
2022-11-10T21:43:46.212Z,100.00
2022-11-10T21:45:09.305Z,100.00
2022-11-10T21:46:34.254Z,100.00
2022-11-10T21:47:57.959Z,100.00
2022-11-10T21:49:20.639Z,100.00
2022-11-10T21:50:42.632Z,100.00
2022-11-10T21:52:04.112Z,100.00
2022-11-10T21:53:27.809Z,100.00
2022-11-10T21:54:49.560Z,100.00
2022-11-10T21:56:13.083Z,100.00
2022-11-10T21:57:34.103Z,100.00
2022-11-10T21:58:56.445Z,100.00
2022-11-10T22:00:18.459Z,100.00
2022-11-10T22:01:40.002Z,100.00
2022-11-10T22:03:02.873Z,100.00
2022-11-10T22:04:24.552Z,100.00
2022-11-10T22:05:46.053Z,100.00
2022-11-10T22:07:24.519Z,100.00
2022-11-10T22:08:46.857Z,100.00
2022-11-10T22:10:27.510Z,100.00
2022-11-10T22:12:07.069Z,100.00
2022-11-10T22:13:48.994Z,100.00
2022-11-10T22:15:29.883Z,100.00
2022-11-10T22:17:11.405Z,100.00
2022-11-10T22:18:42.901Z,100.00
2022-11-10T22:20:04.940Z,100.00
2022-11-10T22:21:27.213Z,100.00
2022-11-10T22:22:50.525Z,100.00
2022-11-10T22:24:27.281Z,100.00
2022-11-10T22:25:50.527Z,100.00
2022-11-10T22:27:14.294Z,100.00
2022-11-10T22:28:36.799Z,100.00
2022-11-10T22:29:58.801Z,100.00
2022-11-10T22:31:19.750Z,100.00
2022-11-10T22:32:40.384Z,100.00
2022-11-10T22:34:05.009Z,100.00
2022-11-10T22:35:45.142Z,100.00
2022-11-10T22:37:06.981Z,100.00
2022-11-10T22:38:29.139Z,100.00
2022-11-10T22:40:09.713Z,100.00
2022-11-10T22:41:53.953Z,100.00
2022-11-10T22:43:33.178Z,100.00
2022-11-10T22:44:54.243Z,100.00
2022-11-10T22:46:15.202Z,100.00
2022-11-10T22:47:54.146Z,100.00
2022-11-10T22:49:17.861Z,100.00
2022-11-10T22:50:43.558Z,100.00
2022-11-10T22:52:11.769Z,100.00
2022-11-10T22:53:35.315Z,100.00
2022-11-10T22:54:58.389Z,100.00
2022-11-10T22:56:20.534Z,100.00
2022-11-10T22:57:42.255Z,100.00
2022-11-10T22:59:06.131Z,100.00
2022-11-10T23:00:29.689Z,100.00
2022-11-10T23:01:53.348Z,100.00
2022-11-10T23:03:16.260Z,100.00
2022-11-10T23:04:37.980Z,100.00
2022-11-10T23:06:00.078Z,100.00
2022-11-10T23:07:21.946Z,100.00
2022-11-10T23:08:44.565Z,100.00
2022-11-10T23:10:06.142Z,100.00
2022-11-10T23:11:28.245Z,100.00
2022-11-10T23:12:49.906Z,100.00
2022-11-10T23:14:12.953Z,100.00
2022-11-10T23:15:36.084Z,100.00
2022-11-10T23:16:59.995Z,100.00
2022-11-10T23:18:21.793Z,100.00
2022-11-10T23:19:42.818Z,100.00
2022-11-10T23:21:06.992Z,100.00
2022-11-10T23:22:27.837Z,100.00
2022-11-10T23:23:55.243Z,100.00
2022-11-10T23:25:18.178Z,100.00
2022-11-10T23:26:39.137Z,100.00
2022-11-10T23:28:01.443Z,100.00
2022-11-10T23:29:23.055Z,100.00
2022-11-10T23:30:46.042Z,100.00
2022-11-10T23:32:08.348Z,100.00
2022-11-10T23:33:33.011Z,100.00
2022-11-10T23:34:53.482Z,100.00
2022-11-10T23:36:15.903Z,100.00
2022-11-10T23:37:38.001Z,100.00
2022-11-10T23:38:59.993Z,100.00
2022-11-10T23:40:21.672Z,100.00
2022-11-10T23:41:43.351Z,100.00
2022-11-10T23:43:06.002Z,100.00
2022-11-10T23:44:27.858Z,100.00
2022-11-10T23:46:06.824Z,100.00
2022-11-10T23:47:14.132Z,100.00
2022-11-10T23:48:36.761Z,100.00
2022-11-10T23:49:59.067Z,100.00
2022-11-10T23:51:20.110Z,100.00
2022-11-10T23:52:41.624Z,100.00
2022-11-10T23:54:03.581Z,100.00
2022-11-10T23:55:28.642Z,100.00
2022-11-10T23:56:52.246Z,100.00
2022-11-10T23:58:14.050Z,100.00
2022-11-10T23:59:35.832Z,100.00
